Time;durP1;ratioP1;P1;durP2;ratioP2;P2;SDS_P1;SDS_P2;PMS_P1;PMS_P2;Temp;Humidity;BMP_temperature;BMP_pressure;BME280_temperature;BME280_humidity;BME280_pressure;Samples;Min_cycle;Max_cycle;Signal;HPM_P1;HPM_P2
2024/03/07 00:01:00;;;;;;;32.92;24.23;;;;;22.10;101312.00;;;;2056393;28;20281;-63
2024/03/07 00:02:01;;;;;;;30.92;23.05;;;;;22.10;101371.00;;;;2054306;28;20303;-64
2024/03/07 00:03:01;;;;;;;30.48;22.83;;;;;22.10;101371.00;;;;2054292;28;20230;-65
2024/03/07 00:04:02;;;;;;;32.07;24.40;;;;;22.10;101382.00;;;;2026225;29;20221;-65
2024/03/07 00:05:03;;;;;;;33.00;22.97;;;;;22.10;101367.00;;;;2044098;28;21269;-63
2024/03/07 00:06:03;;;;;;;33.95;23.60;;;;;22.10;101366.00;;;;2055251;28;20579;-65
2024/03/07 00:07:04;;;;;;;32.30;22.20;;;;;22.10;101376.00;;;;2054883;28;20243;-64
2024/03/07 00:08:04;;;;;;;33.73;22.60;;;;;22.10;101372.00;;;;2063261;28;20226;-62
2024/03/07 00:09:04;;;;;;;27.23;21.13;;;;;22.10;101370.00;;;;2048167;28;20258;-63
2024/03/07 00:10:07;;;;;;;30.87;22.13;;;;;22.10;101369.00;;;;2054374;28;20235;-63
2024/03/07 00:11:07;;;;;;;30.40;21.80;;;;;22.10;101373.00;;;;2061071;28;20218;-63
2024/03/07 00:12:08;;;;;;;30.80;22.17;;;;;22.10;101363.00;;;;2054554;28;21015;-63
2024/03/07 00:13:08;;;;;;;30.40;21.37;;;;;22.10;101400.00;;;;2053741;28;20821;-63
2024/03/07 00:14:11;;;;;;;32.93;23.07;;;;;22.10;101369.00;;;;2055011;28;20223;-63
2024/03/07 00:15:12;;;;;;;28.88;21.50;;;;;22.10;101377.00;;;;2046444;28;20280;-62
2024/03/07 00:16:13;;;;;;;29.55;21.75;;;;;22.10;101379.00;;;;2046371;28;20298;-62
2024/03/07 00:17:14;;;;;;;31.87;23.03;;;;;22.10;101375.00;;;;2052789;28;20606;-63
2024/03/07 00:18:15;;;;;;;30.50;21.17;;;;;21.20;101375.00;;;;2061166;28;20972;-63
2024/03/07 00:19:15;;;;;;;29.37;22.30;;;;;22.10;101375.00;;;;2052872;28;20238;-63
2024/03/07 00:20:19;;;;;;;32.53;21.20;;;;;22.10;101372.00;;;;2055127;28;20258;-62
2024/03/07 00:21:19;;;;;;;27.17;19.55;;;;;22.10;101379.00;;;;2038165;28;20724;-62
2024/03/07 00:22:19;;;;;;;31.20;21.27;;;;;22.10;101373.00;;;;2052063;28;20219;-63
2024/03/07 00:23:20;;;;;;;30.00;21.17;;;;;22.10;101383.00;;;;2061556;28;20322;-62
2024/03/07 00:24:21;;;;;;;25.97;20.77;;;;;22.10;101375.00;;;;2043973;28;20227;-62
2024/03/07 00:25:23;;;;;;;29.40;20.43;;;;;22.00;101316.00;;;;2035272;28;20653;-62
2024/03/07 00:26:24;;;;;;;28.80;19.90;;;;;22.00;101390.00;;;;2021521;29;20226;-62
2024/03/07 00:27:26;;;;;;;29.47;20.63;;;;;22.00;101383.00;;;;2031541;28;20236;-62
2024/03/07 00:28:32;;;;;;;29.52;20.85;;;;;22.00;101381.00;;;;2044398;28;20220;-62
2024/03/07 00:29:35;;;;;;;30.20;20.63;;;;;22.00;101382.00;;;;2042341;28;20699;-62
2024/03/07 00:30:35;;;;;;;27.48;20.00;;;;;22.00;101377.00;;;;2061282;28;20273;-62
2024/03/07 00:31:36;;;;;;;28.33;20.40;;;;;22.00;101379.00;;;;2051775;28;20220;-62
2024/03/07 00:32:39;;;;;;;29.87;19.90;;;;;22.00;101374.00;;;;2050658;28;20522;-62
2024/03/07 00:33:39;;;;;;;27.45;20.05;;;;;22.00;101381.00;;;;2042585;28;20223;-62
2024/03/07 00:34:39;;;;;;;24.60;18.40;;;;;22.00;101370.00;;;;2050833;28;20211;-61
2024/03/07 00:35:40;;;;;;;27.10;19.90;;;;;22.00;101374.00;;;;2052263;28;20228;-62
2024/03/07 00:36:40;;;;;;;25.00;18.53;;;;;22.00;101374.00;;;;2057484;28;20638;-62
2024/03/07 00:37:41;;;;;;;25.30;18.83;;;;;22.00;101381.00;;;;2051827;28;20894;-63
2024/03/07 00:38:42;;;;;;;27.97;19.83;;;;;22.00;101381.00;;;;2039707;28;20232;-63
2024/03/07 00:39:42;;;;;;;23.45;16.83;;;;;22.00;101382.00;;;;2058472;28;20216;-62
2024/03/07 00:40:42;;;;;;;33.70;20.30;;;;;22.00;101377.00;;;;2043884;28;20222;-63
2024/03/07 00:41:43;;;;;;;26.23;18.47;;;;;21.90;101392.00;;;;2044053;28;20208;-64
2024/03/07 00:42:44;;;;;;;25.27;19.10;;;;;22.00;101379.00;;;;2050628;28;20454;-64
2024/03/07 00:43:44;;;;;;;24.80;18.90;;;;;22.00;101382.00;;;;2046617;28;20290;-64
2024/03/07 00:44:45;;;;;;;24.03;18.80;;;;;21.90;101386.00;;;;2042476;28;20213;-64
2024/03/07 00:45:49;;;;;;;25.20;18.90;;;;;21.90;101384.00;;;;2041232;28;20366;-64
2024/03/07 00:46:50;;;;;;;25.90;18.60;;;;;21.90;101378.00;;;;2060768;28;20278;-64
2024/03/07 00:47:50;;;;;;;26.80;18.17;;;;;21.90;101392.00;;;;2049242;28;20256;-64
2024/03/07 00:48:51;;;;;;;24.30;17.77;;;;;21.90;101377.00;;;;2039700;28;20227;-64
2024/03/07 00:49:52;;;;;;;23.92;16.92;;;;;21.90;101381.00;;;;2066612;28;20860;-62
2024/03/07 00:50:52;;;;;;;22.77;17.07;;;;;22.00;101379.00;;;;2057832;28;20287;-62
2024/03/07 00:51:54;;;;;;;23.60;17.63;;;;;21.90;101388.00;;;;2049233;28;20224;-65
2024/03/07 00:52:54;;;;;;;22.13;17.08;;;;;21.90;101391.00;;;;2051992;28;20235;-63
2024/03/07 00:53:55;;;;;;;24.83;16.80;;;;;21.90;101388.00;;;;2055109;28;20237;-62
2024/03/07 00:54:56;;;;;;;24.85;18.27;;;;;21.90;101383.00;;;;2066899;28;20709;-62
2024/03/07 00:55:57;;;;;;;23.53;17.90;;;;;21.90;101324.00;;;;2054961;28;20223;-62
2024/03/07 00:56:57;;;;;;;23.73;17.58;;;;;21.90;101388.00;;;;2048059;28;20238;-62
2024/03/07 00:57:58;;;;;;;25.60;17.47;;;;;21.90;101382.00;;;;2058459;28;20222;-62
2024/03/07 00:58:59;;;;;;;25.13;17.40;;;;;21.90;101385.00;;;;2053583;28;20233;-62
2024/03/07 00:59:59;;;;;;;26.87;16.20;;;;;21.90;101387.00;;;;2069270;28;20742;-63
2024/03/07 01:01:00;;;;;;;21.77;16.70;;;;;21.90;101385.00;;;;2049738;28;20597;-65
2024/03/07 01:02:00;;;;;;;23.70;16.47;;;;;21.90;101385.00;;;;2047187;28;21026;-64
2024/03/07 01:03:01;;;;;;;27.00;17.70;;;;;21.90;101382.00;;;;2062451;28;20781;-65
2024/03/07 01:04:02;;;;;;;22.30;15.30;;;;;21.90;101379.00;;;;2054461;28;20253;-64
2024/03/07 01:05:09;;;;;;;24.70;16.70;;;;;21.90;101319.00;;;;2040148;28;20720;-64
2024/03/07 01:06:10;;;;;;;24.20;17.75;;;;;21.90;101374.00;;;;2052876;28;20311;-63
2024/03/07 01:07:11;;;;;;;24.07;16.47;;;;;21.90;101306.00;;;;2056186;28;20617;-64
2024/03/07 01:08:11;;;;;;;21.50;16.57;;;;;21.90;101378.00;;;;2056721;28;20293;-62
2024/03/07 01:09:16;;;;;;;20.87;15.70;;;;;21.90;101383.00;;;;2049037;28;20237;-61
2024/03/07 01:10:16;;;;;;;22.27;16.95;;;;;21.80;101375.00;;;;2049811;28;20321;-62
2024/03/07 01:11:16;;;;;;;19.57;15.93;;;;;21.80;101377.00;;;;2038841;28;20693;-62
2024/03/07 01:12:22;;;;;;;20.97;15.40;;;;;21.90;101381.00;;;;2043285;28;20298;-62
2024/03/07 01:13:23;;;;;;;24.33;16.25;;;;;21.80;101378.00;;;;2050536;28;20219;-62
2024/03/07 01:14:24;;;;;;;22.65;15.45;;;;;21.80;101377.00;;;;2043235;28;20642;-62
2024/03/07 01:15:24;;;;;;;21.37;16.33;;;;;21.80;101374.00;;;;2051470;28;20219;-62
2024/03/07 01:16:25;;;;;;;20.47;15.30;;;;;21.80;101380.00;;;;2036687;28;20248;-62
2024/03/07 01:17:28;;;;;;;22.33;14.35;;;;;21.80;101379.00;;;;2045346;28;20678;-62
2024/03/07 01:18:28;;;;;;;21.00;16.75;;;;;21.80;101392.00;;;;2043072;28;20219;-62
2024/03/07 01:19:30;;;;;;;21.20;15.80;;;;;21.80;101374.00;;;;2029565;28;20779;-61
2024/03/07 01:20:31;;;;;;;20.52;14.77;;;;;21.80;101381.00;;;;2045527;28;20239;-61
2024/03/07 01:21:33;;;;;;;20.60;15.30;;;;;21.80;101386.00;;;;2050889;28;20358;-62
2024/03/07 01:22:33;;;;;;;19.50;15.30;;;;;21.80;101372.00;;;;2045708;28;20244;-62
2024/03/07 01:23:36;;;;;;;21.50;14.97;;;;;21.80;101398.00;;;;2036354;28;20216;-63
2024/03/07 01:24:39;;;;;;;20.95;15.15;;;;;21.80;101376.00;;;;2051542;28;20702;-62
2024/03/07 01:25:40;;;;;;;21.08;15.98;;;;;21.80;101382.00;;;;2050602;28;20231;-62
2024/03/07 01:26:40;;;;;;;21.03;15.10;;;;;21.80;101377.00;;;;2049619;28;20220;-61
2024/03/07 01:27:41;;;;;;;20.97;15.10;;;;;21.70;101382.00;;;;2053785;28;20237;-62
2024/03/07 01:28:41;;;;;;;20.67;15.00;;;;;21.80;101391.00;;;;2048403;28;20391;-62
2024/03/07 01:29:41;;;;;;;20.00;14.23;;;;;21.80;101374.00;;;;2061092;28;20883;-62
2024/03/07 01:30:42;;;;;;;20.53;15.10;;;;;21.70;101383.00;;;;2052058;28;20988;-62
2024/03/07 01:31:42;;;;;;;17.23;13.57;;;;;21.70;101361.00;;;;2050422;28;20916;-62
2024/03/07 01:32:45;;;;;;;20.87;14.73;;;;;21.70;101372.00;;;;2058575;28;20226;-62
2024/03/07 01:33:46;;;;;;;18.05;13.73;;;;;21.70;101386.00;;;;2037810;28;20688;-62
2024/03/07 01:34:46;;;;;;;19.63;14.67;;;;;21.80;101379.00;;;;2059462;28;20307;-62
2024/03/07 01:35:47;;;;;;;18.83;14.23;;;;;21.80;101379.00;;;;2050525;28;20304;-62
2024/03/07 01:36:47;;;;;;;19.00;13.77;;;;;21.70;101369.00;;;;2040265;28;20223;-62
2024/03/07 01:37:47;;;;;;;20.03;14.67;;;;;21.70;101373.00;;;;2045630;28;20220;-62
2024/03/07 01:38:48;;;;;;;19.77;13.87;;;;;21.70;101370.00;;;;2040992;28;20743;-62
2024/03/07 01:39:49;;;;;;;18.83;13.77;;;;;21.70;101366.00;;;;2049073;28;20722;-62
2024/03/07 01:40:49;;;;;;;21.80;14.23;;;;;21.70;101372.00;;;;2052624;28;20224;-62
2024/03/07 01:41:50;;;;;;;17.30;13.23;;;;;21.70;101335.00;;;;2062270;28;20206;-62
2024/03/07 01:42:50;;;;;;;18.60;13.60;;;;;21.70;101365.00;;;;2051140;28;20227;-62
2024/03/07 01:43:51;;;;;;;20.87;13.77;;;;;21.70;101366.00;;;;2041454;28;20219;-62
2024/03/07 01:44:51;;;;;;;21.03;15.07;;;;;21.70;101370.00;;;;2058984;28;20302;-62
2024/03/07 01:45:53;;;;;;;18.20;13.67;;;;;21.70;101361.00;;;;2058998;28;20223;-62
2024/03/07 01:46:54;;;;;;;16.67;13.30;;;;;21.70;101351.00;;;;2056778;28;20224;-62
2024/03/07 01:47:55;;;;;;;18.07;13.83;;;;;21.70;101350.00;;;;2044028;28;20339;-62
2024/03/07 01:48:55;;;;;;;19.60;14.30;;;;;21.70;101357.00;;;;2038341;28;21149;-62
2024/03/07 01:49:56;;;;;;;20.13;14.13;;;;;21.70;101326.00;;;;2043428;28;20310;-62
2024/03/07 01:50:56;;;;;;;17.60;14.23;;;;;21.70;101367.00;;;;2043182;28;20228;-62
2024/03/07 01:51:57;;;;;;;16.90;12.20;;;;;21.70;101339.00;;;;2043484;28;20663;-62
2024/03/07 01:52:57;;;;;;;18.83;12.50;;;;;21.70;101332.00;;;;2043946;28;20254;-62
2024/03/07 01:53:58;;;;;;;18.53;13.53;;;;;21.70;101367.00;;;;2033169;28;20235;-62
2024/03/07 01:54:58;;;;;;;16.40;12.63;;;;;21.70;101360.00;;;;2031781;28;20233;-61
2024/03/07 01:55:59;;;;;;;17.63;12.87;;;;;21.70;101362.00;;;;2050449;28;20251;-62
2024/03/07 01:56:59;;;;;;;17.03;12.77;;;;;21.70;101359.00;;;;2051658;28;20242;-62
2024/03/07 01:58:00;;;;;;;16.70;13.53;;;;;21.70;101362.00;;;;2037508;28;20247;-62
2024/03/07 01:59:01;;;;;;;18.90;13.73;;;;;21.60;101304.00;;;;2022982;29;20871;-62
2024/03/07 02:00:03;;;;;;;18.25;13.20;;;;;21.60;101355.00;;;;2034668;28;20227;-62
2024/03/07 02:01:04;;;;;;;18.45;12.43;;;;;21.60;101351.00;;;;2043580;28;20220;-63
2024/03/07 02:02:05;;;;;;;16.73;12.47;;;;;21.60;101369.00;;;;2046673;28;20243;-61
2024/03/07 02:03:07;;;;;;;16.65;12.43;;;;;21.70;101362.00;;;;2044407;28;21022;-62
2024/03/07 02:04:08;;;;;;;17.63;12.52;;;;;21.70;101357.00;;;;2032222;28;20221;-62
2024/03/07 02:05:08;;;;;;;16.60;12.23;;;;;21.60;101351.00;;;;2056170;28;20219;-64
2024/03/07 02:06:08;;;;;;;17.17;11.83;;;;;21.70;101352.00;;;;2058241;28;20227;-64
2024/03/07 02:07:11;;;;;;;17.50;12.70;;;;;21.70;101359.00;;;;2047589;28;20258;-64
2024/03/07 02:08:11;;;;;;;16.98;12.57;;;;;21.70;101349.00;;;;2051876;28;20215;-64
2024/03/07 02:09:11;;;;;;;18.20;12.83;;;;;21.60;101347.00;;;;2030722;28;20215;-64
2024/03/07 02:10:12;;;;;;;16.03;11.70;;;;;21.60;101338.00;;;;2054461;28;20254;-64
2024/03/07 02:11:13;;;;;;;17.03;12.23;;;;;21.60;101361.00;;;;2059834;28;20238;-64
2024/03/07 02:12:14;;;;;;;15.90;12.48;;;;;21.60;101356.00;;;;2054908;28;20219;-64
2024/03/07 02:13:15;;;;;;;14.37;11.30;;;;;21.60;101376.00;;;;2049866;28;20306;-64
2024/03/07 02:14:16;;;;;;;16.85;12.23;;;;;21.60;101358.00;;;;2047544;28;20466;-64
2024/03/07 02:15:17;;;;;;;16.02;11.95;;;;;21.60;101346.00;;;;2054235;28;20589;-64
2024/03/07 02:16:17;;;;;;;14.63;11.20;;;;;21.60;101366.00;;;;2060132;28;20211;-64
2024/03/07 02:17:18;;;;;;;15.43;11.97;;;;;21.60;101324.00;;;;2058532;28;20707;-64
2024/03/07 02:18:23;;;;;;;15.13;12.07;;;;;21.60;101267.00;;;;2045176;28;20784;-64
2024/03/07 02:19:24;;;;;;;15.30;11.68;;;;;21.60;101344.00;;;;2029351;28;20236;-64
2024/03/07 02:20:24;;;;;;;14.87;10.93;;;;;21.50;101343.00;;;;2044285;28;20720;-64
2024/03/07 02:21:27;;;;;;;15.17;11.63;;;;;21.60;101352.00;;;;2050557;28;20219;-64
2024/03/07 02:22:28;;;;;;;16.00;11.68;;;;;21.60;101333.00;;;;2037178;28;20248;-64
2024/03/07 02:23:28;;;;;;;18.27;12.60;;;;;21.50;101283.00;;;;2044280;28;20229;-64
2024/03/07 02:24:28;;;;;;;15.70;10.83;;;;;21.50;101339.00;;;;2028831;28;20249;-64
2024/03/07 02:25:30;;;;;;;14.77;11.10;;;;;21.60;101342.00;;;;2043193;28;20220;-64
2024/03/07 02:26:30;;;;;;;14.52;11.02;;;;;21.50;101345.00;;;;2042335;28;20227;-64
2024/03/07 02:27:30;;;;;;;13.70;10.70;;;;;21.60;101341.00;;;;2041640;28;20934;-64
2024/03/07 02:28:31;;;;;;;16.93;11.37;;;;;21.60;101331.00;;;;2052061;28;21235;-63
2024/03/07 02:29:31;;;;;;;16.40;11.90;;;;;21.60;101341.00;;;;2036454;28;20235;-64
2024/03/07 02:30:32;;;;;;;13.93;11.10;;;;;21.50;101322.00;;;;2044908;28;20331;-64
2024/03/07 02:31:36;;;;;;;16.40;11.60;;;;;21.50;101346.00;;;;2058814;28;20695;-64
2024/03/07 02:32:37;;;;;;;17.13;11.68;;;;;21.60;101338.00;;;;2043542;28;20243;-64
2024/03/07 02:33:37;;;;;;;14.97;10.73;;;;;21.60;101340.00;;;;2039018;28;20614;-65
2024/03/07 02:34:37;;;;;;;15.00;11.00;;;;;21.60;101341.00;;;;2060445;28;20372;-64
2024/03/07 02:35:38;;;;;;;13.97;11.20;;;;;21.60;101335.00;;;;2045443;28;20213;-64
2024/03/07 02:36:39;;;;;;;19.70;12.17;;;;;21.60;101342.00;;;;2047760;28;21158;-64
2024/03/07 02:37:39;;;;;;;13.83;10.70;;;;;21.60;101346.00;;;;2052275;28;20552;-64
2024/03/07 02:38:39;;;;;;;13.90;10.30;;;;;21.60;101329.00;;;;2049593;28;21010;-64
2024/03/07 02:39:41;;;;;;;14.13;11.50;;;;;21.60;101330.00;;;;2044471;28;20602;-64
2024/03/07 02:40:43;;;;;;;13.95;11.35;;;;;21.60;101331.00;;;;2050599;28;20215;-64
2024/03/07 02:41:43;;;;;;;14.00;10.25;;;;;21.60;101339.00;;;;2052956;28;20624;-64
2024/03/07 02:42:44;;;;;;;14.47;11.03;;;;;21.60;101332.00;;;;2052680;28;20219;-64
2024/03/07 02:43:44;;;;;;;16.38;11.48;;;;;21.50;101337.00;;;;2052344;28;20207;-64
2024/03/07 02:44:45;;;;;;;16.67;11.63;;;;;21.50;101306.00;;;;2052033;28;20226;-64
2024/03/07 02:45:46;;;;;;;14.30;10.63;;;;;21.50;101337.00;;;;2057738;28;20251;-64
2024/03/07 02:46:48;;;;;;;12.20;9.50;;;;;21.50;101339.00;;;;2051873;28;20451;-64
2024/03/07 02:47:49;;;;;;;16.17;12.05;;;;;21.50;101338.00;;;;2061205;28;20282;-64
2024/03/07 02:48:49;;;;;;;14.13;10.50;;;;;21.50;101345.00;;;;2051896;28;20206;-64
2024/03/07 02:49:51;;;;;;;13.10;10.17;;;;;21.50;101337.00;;;;2060471;28;20207;-64
2024/03/07 02:50:51;;;;;;;14.98;10.20;;;;;21.50;101340.00;;;;2052842;28;20208;-64
2024/03/07 02:51:51;;;;;;;13.70;10.40;;;;;21.50;101340.00;;;;2043171;28;20465;-64
2024/03/07 02:52:52;;;;;;;15.20;10.70;;;;;21.50;101340.00;;;;2048169;28;20401;-64
2024/03/07 02:53:53;;;;;;;13.80;11.00;;;;;21.50;101338.00;;;;2045901;28;20212;-64
2024/03/07 02:54:53;;;;;;;14.23;9.97;;;;;21.50;101336.00;;;;2057868;28;20297;-64
2024/03/07 02:55:54;;;;;;;12.30;9.80;;;;;21.50;101341.00;;;;2048411;28;20224;-64
2024/03/07 02:56:54;;;;;;;17.10;11.67;;;;;21.50;101327.00;;;;2052271;28;20223;-64
2024/03/07 02:57:58;;;;;;;14.40;10.80;;;;;21.50;101341.00;;;;2059187;28;20234;-64
2024/03/07 02:58:58;;;;;;;16.60;11.02;;;;;21.50;101340.00;;;;2047059;28;20230;-64
2024/03/07 02:59:59;;;;;;;14.00;10.60;;;;;21.50;101330.00;;;;2068598;28;20558;-64
2024/03/07 03:00:59;;;;;;;14.90;10.77;;;;;21.50;101329.00;;;;2064783;28;20571;-64
2024/03/07 03:02:00;;;;;;;13.07;10.37;;;;;21.50;101337.00;;;;2053733;28;20246;-64
2024/03/07 03:03:00;;;;;;;14.47;10.37;;;;;21.50;101326.00;;;;2045073;28;20632;-64
2024/03/07 03:04:00;;;;;;;15.07;10.20;;;;;21.50;101334.00;;;;2042401;28;20649;-64
2024/03/07 03:05:04;;;;;;;12.37;10.33;;;;;21.50;101327.00;;;;2063650;28;20968;-64
2024/03/07 03:06:08;;;;;;;13.43;10.60;;;;;21.50;101285.00;;;;2039927;28;20212;-65
2024/03/07 03:07:09;;;;;;;13.35;9.57;;;;;21.50;101329.00;;;;2041000;28;20213;-64
2024/03/07 03:08:09;;;;;;;11.57;9.13;;;;;21.50;101319.00;;;;2051180;28;20219;-64
2024/03/07 03:09:13;;;;;;;14.23;10.13;;;;;21.40;101310.00;;;;2038273;28;20467;-66
2024/03/07 03:10:15;;;;;;;13.43;10.13;;;;;21.40;101312.00;;;;2051332;28;20219;-64
2024/03/07 03:11:16;;;;;;;15.20;10.75;;;;;21.40;101312.00;;;;2047312;28;20224;-64
2024/03/07 03:12:16;;;;;;;15.47;11.40;;;;;21.50;101314.00;;;;2055078;28;20262;-64
2024/03/07 03:13:17;;;;;;;14.97;10.30;;;;;21.50;101312.00;;;;2061349;28;20230;-64
2024/03/07 03:14:18;;;;;;;12.43;10.50;;;;;21.50;101313.00;;;;2042593;28;20227;-64
2024/03/07 03:15:20;;;;;;;13.73;10.33;;;;;21.50;101311.00;;;;2053300;28;20602;-64
2024/03/07 03:16:22;;;;;;;15.52;10.07;;;;;21.40;101310.00;;;;2060964;28;20210;-64
2024/03/07 03:17:23;;;;;;;15.55;11.13;;;;;21.40;101137.00;;;;2051754;28;20228;-64
2024/03/07 03:18:23;;;;;;;13.67;9.70;;;;;21.40;101310.00;;;;2044345;28;20689;-64
2024/03/07 03:19:24;;;;;;;15.40;10.90;;;;;21.40;101306.00;;;;2052638;28;20222;-64
2024/03/07 03:20:25;;;;;;;13.60;9.18;;;;;21.40;101305.00;;;;2062164;28;20214;-64
2024/03/07 03:21:27;;;;;;;13.77;10.40;;;;;21.40;101299.00;;;;2061935;28;20229;-64
2024/03/07 03:22:27;;;;;;;13.38;9.65;;;;;21.40;101302.00;;;;2069302;28;20226;-63
2024/03/07 03:23:30;;;;;;;12.93;9.47;;;;;21.40;101303.00;;;;2066713;28;20229;-64
2024/03/07 03:24:31;;;;;;;14.27;9.95;;;;;21.40;101301.00;;;;2051837;28;20235;-64
2024/03/07 03:25:34;;;;;;;11.70;9.70;;;;;21.40;101298.00;;;;2060097;28;21091;-64
2024/03/07 03:26:35;;;;;;;12.85;9.90;;;;;21.40;101293.00;;;;2061892;28;20219;-64
2024/03/07 03:27:35;;;;;;;13.90;9.80;;;;;21.40;101299.00;;;;2061356;28;20227;-64
2024/03/07 03:28:41;;;;;;;13.43;9.95;;;;;21.40;101304.00;;;;2045630;28;20219;-65
2024/03/07 03:29:41;;;;;;;12.70;9.52;;;;;21.40;101306.00;;;;2046255;28;20278;-64
2024/03/07 03:30:42;;;;;;;14.13;10.57;;;;;21.40;101294.00;;;;2058378;28;20629;-64
2024/03/07 03:31:43;;;;;;;15.55;10.38;;;;;21.40;101234.00;;;;2062814;28;20211;-64
2024/03/07 03:32:47;;;;;;;12.93;10.20;;;;;21.40;101299.00;;;;2053733;28;20211;-64
2024/03/07 03:33:48;;;;;;;12.48;9.55;;;;;21.40;101304.00;;;;2034376;28;20514;-64
2024/03/07 03:34:48;;;;;;;13.53;9.07;;;;;21.40;101308.00;;;;2052602;28;20278;-64
2024/03/07 03:35:49;;;;;;;14.30;9.87;;;;;21.40;101301.00;;;;2052811;28;20294;-64
2024/03/07 03:36:49;;;;;;;12.97;9.93;;;;;21.40;101290.00;;;;2052709;28;20743;-64
2024/03/07 03:37:50;;;;;;;13.10;10.00;;;;;21.40;101301.00;;;;2045854;28;20279;-64
2024/03/07 03:38:53;;;;;;;12.73;9.38;;;;;21.40;101296.00;;;;2038772;28;20224;-63
2024/03/07 03:39:54;;;;;;;13.27;9.73;;;;;21.40;101295.00;;;;2049921;28;20220;-64
2024/03/07 03:40:55;;;;;;;12.50;9.60;;;;;21.40;101306.00;;;;2059135;28;20699;-64
2024/03/07 03:41:56;;;;;;;13.27;10.32;;;;;21.30;101294.00;;;;2052420;28;20666;-64
2024/03/07 03:42:57;;;;;;;13.67;9.83;;;;;21.40;101298.00;;;;2046299;28;20220;-64
2024/03/07 03:43:58;;;;;;;12.83;9.23;;;;;21.40;101305.00;;;;2045906;28;20803;-64
2024/03/07 03:44:59;;;;;;;15.25;11.02;;;;;21.40;101304.00;;;;2066442;28;20215;-64
2024/03/07 03:46:01;;;;;;;15.00;9.90;;;;;21.40;101232.00;;;;2064501;28;20215;-64
2024/03/07 03:47:03;;;;;;;11.82;8.93;;;;;21.40;101291.00;;;;2052582;28;20459;-64
2024/03/07 03:48:05;;;;;;;12.50;8.95;;;;;21.40;101297.00;;;;2053794;28;20243;-64
2024/03/07 03:49:06;;;;;;;14.30;9.43;;;;;21.30;101291.00;;;;2040015;28;20298;-64
2024/03/07 03:50:07;;;;;;;13.23;9.40;;;;;21.30;101292.00;;;;2046863;28;20215;-64
2024/03/07 03:51:09;;;;;;;14.20;9.75;;;;;21.40;101297.00;;;;2054491;28;20211;-64
2024/03/07 03:52:09;;;;;;;10.52;8.15;;;;;21.40;101290.00;;;;2055570;28;20224;-64
2024/03/07 03:53:10;;;;;;;11.93;8.80;;;;;21.40;101296.00;;;;2061044;28;20211;-64
2024/03/07 03:54:10;;;;;;;14.20;9.60;;;;;21.40;101288.00;;;;2051157;28;20218;-64
2024/03/07 03:55:14;;;;;;;12.70;8.97;;;;;21.40;101296.00;;;;2059339;28;20211;-64
2024/03/07 03:56:15;;;;;;;13.40;9.65;;;;;21.40;101369.00;;;;2052693;28;20215;-64
2024/03/07 03:57:18;;;;;;;12.35;9.02;;;;;21.30;101287.00;;;;2046208;28;20259;-64
2024/03/07 03:58:18;;;;;;;13.60;9.40;;;;;21.40;101294.00;;;;2048553;28;20207;-64
2024/03/07 03:59:18;;;;;;;12.23;9.27;;;;;21.40;101287.00;;;;2052991;28;20237;-63
2024/03/07 04:00:22;;;;;;;16.07;9.40;;;;;21.40;101287.00;;;;2068723;28;20241;-65
2024/03/07 04:01:23;;;;;;;12.20;8.85;;;;;21.30;101294.00;;;;2062222;28;20705;-64
2024/03/07 04:02:23;;;;;;;12.70;8.80;;;;;21.40;101294.00;;;;2059576;28;20253;-64
2024/03/07 04:03:25;;;;;;;11.53;8.40;;;;;21.40;101288.00;;;;2057981;28;20914;-64
2024/03/07 04:04:25;;;;;;;13.13;9.68;;;;;21.30;101291.00;;;;2039426;28;20235;-64
2024/03/07 04:05:26;;;;;;;12.53;9.20;;;;;21.40;101294.00;;;;2046078;28;20228;-64
2024/03/07 04:06:26;;;;;;;12.90;9.43;;;;;21.30;101298.00;;;;2052052;28;20227;-64
2024/03/07 04:07:27;;;;;;;11.33;9.30;;;;;21.30;101286.00;;;;2052214;28;20227;-64
2024/03/07 04:08:28;;;;;;;10.65;8.10;;;;;21.30;101281.00;;;;2043858;28;20299;-62
2024/03/07 04:09:28;;;;;;;12.10;9.10;;;;;21.30;101292.00;;;;2041290;28;20230;-64
2024/03/07 04:10:29;;;;;;;13.67;9.67;;;;;21.30;101292.00;;;;2056509;28;20243;-64
2024/03/07 04:11:29;;;;;;;11.67;9.00;;;;;21.30;101159.00;;;;2047451;28;20306;-63
2024/03/07 04:12:30;;;;;;;13.87;9.67;;;;;21.30;101293.00;;;;2051527;28;20660;-64
2024/03/07 04:13:31;;;;;;;12.90;9.10;;;;;21.30;101285.00;;;;2044972;28;20231;-64
2024/03/07 04:14:33;;;;;;;13.00;9.18;;;;;21.30;101290.00;;;;2036467;28;20240;-64
2024/03/07 04:15:33;;;;;;;12.38;8.93;;;;;21.30;101285.00;;;;2051417;28;20771;-64
2024/03/07 04:16:34;;;;;;;13.73;9.30;;;;;21.30;101288.00;;;;2034064;28;20268;-64
2024/03/07 04:17:34;;;;;;;12.53;8.90;;;;;21.30;101287.00;;;;2044374;28;20224;-64
2024/03/07 04:18:35;;;;;;;14.47;9.10;;;;;21.30;101293.00;;;;2045341;28;20848;-64
2024/03/07 04:19:35;;;;;;;13.80;9.13;;;;;21.30;101287.00;;;;2051019;28;20505;-65
2024/03/07 04:20:36;;;;;;;12.43;9.07;;;;;21.30;101286.00;;;;2048539;28;20636;-64
2024/03/07 04:21:37;;;;;;;11.17;9.17;;;;;21.30;101294.00;;;;2053469;28;20302;-63
2024/03/07 04:22:40;;;;;;;13.38;9.15;;;;;21.30;101293.00;;;;2052305;28;20310;-64
2024/03/07 04:23:41;;;;;;;11.02;8.40;;;;;21.30;101289.00;;;;2033103;28;20224;-63
2024/03/07 04:24:43;;;;;;;11.50;8.98;;;;;21.30;101284.00;;;;2052583;28;20250;-64
2024/03/07 04:25:44;;;;;;;13.35;9.15;;;;;21.30;101282.00;;;;2067043;28;20249;-64
2024/03/07 04:26:44;;;;;;;12.80;9.00;;;;;21.30;101282.00;;;;2061993;28;20214;-64
2024/03/07 04:27:45;;;;;;;11.43;8.30;;;;;21.30;101287.00;;;;2060225;28;20217;-64
2024/03/07 04:28:45;;;;;;;15.17;9.20;;;;;21.30;101288.00;;;;2057233;28;20251;-64
2024/03/07 04:29:47;;;;;;;14.17;9.57;;;;;21.30;101287.00;;;;2061321;28;20229;-63
2024/03/07 04:30:49;;;;;;;11.60;8.75;;;;;21.20;101287.00;;;;2064740;28;20206;-64
2024/03/07 04:31:50;;;;;;;11.95;9.18;;;;;21.30;101289.00;;;;2061199;28;20219;-63
2024/03/07 04:32:51;;;;;;;11.25;8.20;;;;;21.30;101279.00;;;;2060212;28;20286;-64
2024/03/07 04:33:52;;;;;;;12.68;9.07;;;;;21.20;101293.00;;;;2034336;28;20215;-64
2024/03/07 04:34:53;;;;;;;12.10;8.40;;;;;21.30;101282.00;;;;2043686;28;20763;-64
2024/03/07 04:35:54;;;;;;;12.93;8.80;;;;;21.30;101287.00;;;;2057253;28;20466;-64
2024/03/07 04:37:01;;;;;;;11.23;8.43;;;;;21.30;101285.00;;;;2052054;28;20259;-64
2024/03/07 04:38:02;;;;;;;12.30;9.27;;;;;21.10;101284.00;;;;2049407;28;20220;-64
2024/03/07 04:39:04;;;;;;;12.23;9.20;;;;;21.20;101284.00;;;;2044231;28;20406;-64
2024/03/07 04:40:14;;;;;;;11.65;8.52;;;;;21.30;101283.00;;;;2060659;28;20278;-64
2024/03/07 04:41:15;;;;;;;12.90;9.52;;;;;21.30;101283.00;;;;2052158;28;20243;-64
2024/03/07 04:42:15;;;;;;;12.80;8.30;;;;;21.30;101282.00;;;;2045106;28;20278;-64
2024/03/07 04:43:16;;;;;;;11.27;8.40;;;;;21.30;101286.00;;;;2053361;28;20766;-64
2024/03/07 04:44:16;;;;;;;13.93;9.00;;;;;21.20;101268.00;;;;2042587;28;20222;-64
2024/03/07 04:45:17;;;;;;;14.13;10.33;;;;;21.20;101284.00;;;;2051811;28;20208;-64
2024/03/07 04:46:17;;;;;;;14.30;9.13;;;;;21.20;101284.00;;;;2051329;28;20214;-64
2024/03/07 04:47:18;;;;;;;13.90;8.47;;;;;21.20;101280.00;;;;2051903;28;20553;-64
2024/03/07 04:48:20;;;;;;;11.65;8.90;;;;;21.20;101286.00;;;;2065859;28;20289;-62
2024/03/07 04:49:20;;;;;;;11.83;8.73;;;;;21.20;101291.00;;;;2049511;28;20294;-62
2024/03/07 04:50:20;;;;;;;14.70;9.43;;;;;21.20;101276.00;;;;2057307;28;20243;-62
2024/03/07 04:51:21;;;;;;;10.97;8.37;;;;;21.20;101283.00;;;;2056673;28;20204;-62
2024/03/07 04:52:21;;;;;;;12.30;9.03;;;;;21.20;101271.00;;;;2055728;28;20213;-62
2024/03/07 04:53:23;;;;;;;12.90;8.67;;;;;21.20;101274.00;;;;2055306;28;20215;-63
2024/03/07 04:54:24;;;;;;;12.93;9.57;;;;;21.20;101214.00;;;;2044271;28;20302;-62
2024/03/07 04:55:28;;;;;;;11.83;8.20;;;;;21.20;101273.00;;;;2045311;28;20216;-62
2024/03/07 04:56:29;;;;;;;11.73;8.50;;;;;21.20;101279.00;;;;2039443;28;20220;-62